sensor_id;sensor_type;location;lat;lon;timestamp;P1;durP1;ratioP1;P2;durP2;ratioP2
70744;SDS011;59284;31.390;34.904;2023-02-04T00:00:50;10.65;;;4.00;;
70744;SDS011;59284;31.390;34.904;2023-02-04T00:03:15;6.17;;;4.20;;
70744;SDS011;59284;31.390;34.904;2023-02-04T00:05:41;6.93;;;4.10;;
70744;SDS011;59284;31.390;34.904;2023-02-04T00:08:09;6.32;;;4.13;;
70744;SDS011;59284;31.390;34.904;2023-02-04T00:10:35;5.83;;;3.20;;
70744;SDS011;59284;31.390;34.904;2023-02-04T00:13:02;11.93;;;4.90;;
70744;SDS011;59284;31.390;34.904;2023-02-04T00:15:28;9.23;;;4.50;;
70744;SDS011;59284;31.390;34.904;2023-02-04T00:17:54;6.43;;;3.97;;
70744;SDS011;59284;31.390;34.904;2023-02-04T00:20:21;10.40;;;5.00;;
70744;SDS011;59284;31.390;34.904;2023-02-04T00:22:46;10.40;;;5.13;;
70744;SDS011;59284;31.390;34.904;2023-02-04T00:25:12;5.00;;;3.17;;
70744;SDS011;59284;31.390;34.904;2023-02-04T00:27:38;6.25;;;2.58;;
70744;SDS011;59284;31.390;34.904;2023-02-04T00:30:04;9.93;;;4.67;;
70744;SDS011;59284;31.390;34.904;2023-02-04T00:32:31;13.55;;;5.10;;
70744;SDS011;59284;31.390;34.904;2023-02-04T00:34:56;9.67;;;3.50;;
70744;SDS011;59284;31.390;34.904;2023-02-04T00:37:22;10.38;;;4.15;;
70744;SDS011;59284;31.390;34.904;2023-02-04T00:39:48;5.22;;;3.50;;
70744;SDS011;59284;31.390;34.904;2023-02-04T00:42:14;8.87;;;5.00;;
70744;SDS011;59284;31.390;34.904;2023-02-04T00:44:40;7.45;;;4.53;;
70744;SDS011;59284;31.390;34.904;2023-02-04T00:47:05;10.77;;;5.33;;
70744;SDS011;59284;31.390;34.904;2023-02-04T00:49:34;8.75;;;5.28;;
70744;SDS011;59284;31.390;34.904;2023-02-04T00:52:00;9.80;;;4.80;;
70744;SDS011;59284;31.390;34.904;2023-02-04T00:54:26;11.70;;;5.03;;
70744;SDS011;59284;31.390;34.904;2023-02-04T00:56:54;8.63;;;4.27;;
70744;SDS011;59284;31.390;34.904;2023-02-04T00:59:20;7.18;;;4.18;;
70744;SDS011;59284;31.390;34.904;2023-02-04T01:01:45;10.30;;;4.47;;
70744;SDS011;59284;31.390;34.904;2023-02-04T01:04:11;8.95;;;4.38;;
70744;SDS011;59284;31.390;34.904;2023-02-04T01:06:37;9.25;;;4.80;;
70744;SDS011;59284;31.390;34.904;2023-02-04T01:09:02;11.17;;;5.13;;
70744;SDS011;59284;31.390;34.904;2023-02-04T01:11:29;7.28;;;4.50;;
70744;SDS011;59284;31.390;34.904;2023-02-04T01:13:55;7.50;;;4.68;;
70744;SDS011;59284;31.390;34.904;2023-02-04T01:16:21;8.60;;;6.73;;
70744;SDS011;59284;31.390;34.904;2023-02-04T01:18:47;9.10;;;4.65;;
70744;SDS011;59284;31.390;34.904;2023-02-04T01:21:13;10.00;;;5.47;;
70744;SDS011;59284;31.390;34.904;2023-02-04T01:23:39;11.73;;;5.57;;
70744;SDS011;59284;31.390;34.904;2023-02-04T01:26:05;6.38;;;3.53;;
70744;SDS011;59284;31.390;34.904;2023-02-04T01:28:30;7.43;;;4.10;;
70744;SDS011;59284;31.390;34.904;2023-02-04T01:30:56;16.23;;;4.93;;
70744;SDS011;59284;31.390;34.904;2023-02-04T01:33:21;6.80;;;4.40;;
70744;SDS011;59284;31.390;34.904;2023-02-04T01:35:48;11.00;;;5.13;;
70744;SDS011;59284;31.390;34.904;2023-02-04T01:38:13;9.07;;;4.87;;
70744;SDS011;59284;31.390;34.904;2023-02-04T01:40:40;9.88;;;4.70;;
70744;SDS011;59284;31.390;34.904;2023-02-04T01:43:06;12.70;;;4.50;;
70744;SDS011;59284;31.390;34.904;2023-02-04T01:45:33;8.63;;;4.63;;
70744;SDS011;59284;31.390;34.904;2023-02-04T01:48:00;12.93;;;4.57;;
70744;SDS011;59284;31.390;34.904;2023-02-04T01:50:28;7.43;;;3.80;;
70744;SDS011;59284;31.390;34.904;2023-02-04T01:52:54;7.78;;;4.07;;
70744;SDS011;59284;31.390;34.904;2023-02-04T01:55:21;9.10;;;4.77;;
70744;SDS011;59284;31.390;34.904;2023-02-04T01:58:15;13.27;;;4.68;;
70744;SDS011;59284;31.390;34.904;2023-02-04T02:00:41;7.22;;;4.30;;
70744;SDS011;59284;31.390;34.904;2023-02-04T02:03:07;13.67;;;4.97;;
70744;SDS011;59284;31.390;34.904;2023-02-04T02:05:39;7.63;;;4.63;;
70744;SDS011;59284;31.390;34.904;2023-02-04T02:08:08;7.72;;;4.93;;
70744;SDS011;59284;31.390;34.904;2023-02-04T02:10:35;7.20;;;4.07;;
70744;SDS011;59284;31.390;34.904;2023-02-04T02:13:03;9.80;;;4.70;;
70744;SDS011;59284;31.390;34.904;2023-02-04T02:15:30;6.88;;;3.58;;
70744;SDS011;59284;31.390;34.904;2023-02-04T02:17:56;18.53;;;5.70;;
70744;SDS011;59284;31.390;34.904;2023-02-04T02:20:23;7.93;;;3.80;;
70744;SDS011;59284;31.390;34.904;2023-02-04T02:25:38;6.60;;;3.97;;
70744;SDS011;59284;31.390;34.904;2023-02-04T02:28:06;9.93;;;5.28;;
70744;SDS011;59284;31.390;34.904;2023-02-04T02:30:35;10.07;;;5.00;;
70744;SDS011;59284;31.390;34.904;2023-02-04T02:33:01;8.70;;;4.93;;
70744;SDS011;59284;31.390;34.904;2023-02-04T02:35:28;11.05;;;4.97;;
70744;SDS011;59284;31.390;34.904;2023-02-04T02:37:53;12.83;;;6.00;;
70744;SDS011;59284;31.390;34.904;2023-02-04T02:40:19;10.70;;;5.55;;
70744;SDS011;59284;31.390;34.904;2023-02-04T02:42:46;9.70;;;4.03;;
70744;SDS011;59284;31.390;34.904;2023-02-04T02:45:25;7.97;;;5.15;;
70744;SDS011;59284;31.390;34.904;2023-02-04T02:47:53;8.25;;;4.35;;
70744;SDS011;59284;31.390;34.904;2023-02-04T02:50:22;12.85;;;4.80;;
70744;SDS011;59284;31.390;34.904;2023-02-04T02:52:50;10.57;;;5.43;;
70744;SDS011;59284;31.390;34.904;2023-02-04T02:55:18;7.20;;;4.32;;
70744;SDS011;59284;31.390;34.904;2023-02-04T02:57:46;10.05;;;4.32;;
70744;SDS011;59284;31.390;34.904;2023-02-04T03:00:26;8.63;;;4.55;;
70744;SDS011;59284;31.390;34.904;2023-02-04T03:05:22;5.73;;;3.67;;
70744;SDS011;59284;31.390;34.904;2023-02-04T03:07:48;10.82;;;4.82;;
70744;SDS011;59284;31.390;34.904;2023-02-04T03:10:15;5.10;;;2.72;;
70744;SDS011;59284;31.390;34.904;2023-02-04T03:12:43;5.90;;;3.35;;
70744;SDS011;59284;31.390;34.904;2023-02-04T03:15:10;9.05;;;4.20;;
70744;SDS011;59284;31.390;34.904;2023-02-04T03:17:36;7.57;;;4.23;;
70744;SDS011;59284;31.390;34.904;2023-02-04T03:20:02;8.52;;;4.15;;
70744;SDS011;59284;31.390;34.904;2023-02-04T03:22:28;11.20;;;4.68;;
70744;SDS011;59284;31.390;34.904;2023-02-04T03:24:54;10.07;;;3.90;;
70744;SDS011;59284;31.390;34.904;2023-02-04T03:27:22;5.55;;;2.92;;
70744;SDS011;59284;31.390;34.904;2023-02-04T03:29:49;6.78;;;3.60;;
70744;SDS011;59284;31.390;34.904;2023-02-04T03:32:15;8.20;;;3.60;;
70744;SDS011;59284;31.390;34.904;2023-02-04T03:34:41;8.98;;;5.38;;
70744;SDS011;59284;31.390;34.904;2023-02-04T03:37:06;7.47;;;4.07;;
70744;SDS011;59284;31.390;34.904;2023-02-04T03:39:33;9.70;;;4.28;;
70744;SDS011;59284;31.390;34.904;2023-02-04T03:41:58;10.60;;;3.70;;
70744;SDS011;59284;31.390;34.904;2023-02-04T03:44:24;7.78;;;3.60;;
70744;SDS011;59284;31.390;34.904;2023-02-04T03:46:54;9.13;;;3.97;;
70744;SDS011;59284;31.390;34.904;2023-02-04T03:49:21;5.40;;;3.45;;
70744;SDS011;59284;31.390;34.904;2023-02-04T03:51:47;7.80;;;3.23;;
70744;SDS011;59284;31.390;34.904;2023-02-04T03:54:12;7.53;;;2.92;;
70744;SDS011;59284;31.390;34.904;2023-02-04T03:56:39;7.95;;;4.25;;
70744;SDS011;59284;31.390;34.904;2023-02-04T03:59:05;4.33;;;2.77;;
70744;SDS011;59284;31.390;34.904;2023-02-04T04:01:30;6.03;;;3.45;;
70744;SDS011;59284;31.390;34.904;2023-02-04T04:03:57;7.77;;;3.60;;
70744;SDS011;59284;31.390;34.904;2023-02-04T04:06:22;8.13;;;3.88;;
70744;SDS011;59284;31.390;34.904;2023-02-04T04:08:48;7.33;;;3.40;;
70744;SDS011;59284;31.390;34.904;2023-02-04T04:11:14;6.40;;;3.50;;
70744;SDS011;59284;31.390;34.904;2023-02-04T04:13:39;7.20;;;3.77;;
70744;SDS011;59284;31.390;34.904;2023-02-04T04:16:05;7.18;;;3.03;;
70744;SDS011;59284;31.390;34.904;2023-02-04T04:18:32;6.07;;;3.30;;
70744;SDS011;59284;31.390;34.904;2023-02-04T04:20:58;8.13;;;3.63;;
70744;SDS011;59284;31.390;34.904;2023-02-04T04:23:23;6.05;;;2.78;;
70744;SDS011;59284;31.390;34.904;2023-02-04T04:25:49;6.63;;;3.55;;
70744;SDS011;59284;31.390;34.904;2023-02-04T04:28:15;3.83;;;2.30;;
70744;SDS011;59284;31.390;34.904;2023-02-04T04:30:41;4.03;;;2.50;;
70744;SDS011;59284;31.390;34.904;2023-02-04T04:33:06;5.53;;;3.23;;
70744;SDS011;59284;31.390;34.904;2023-02-04T04:35:32;8.63;;;3.72;;
70744;SDS011;59284;31.390;34.904;2023-02-04T04:37:59;7.18;;;2.63;;
70744;SDS011;59284;31.390;34.904;2023-02-04T04:40:25;7.90;;;3.28;;
70744;SDS011;59284;31.390;34.904;2023-02-04T04:42:51;7.30;;;3.03;;
70744;SDS011;59284;31.390;34.904;2023-02-04T04:45:16;5.37;;;2.87;;
70744;SDS011;59284;31.390;34.904;2023-02-04T04:47:42;8.50;;;3.92;;
70744;SDS011;59284;31.390;34.904;2023-02-04T04:50:08;8.10;;;3.57;;
70744;SDS011;59284;31.390;34.904;2023-02-04T04:52:34;7.28;;;3.97;;
70744;SDS011;59284;31.390;34.904;2023-02-04T04:54:59;6.95;;;2.97;;
70744;SDS011;59284;31.390;34.904;2023-02-04T04:57:25;5.90;;;2.70;;
70744;SDS011;59284;31.390;34.904;2023-02-04T04:59:50;2.60;;;1.37;;
70744;SDS011;59284;31.390;34.904;2023-02-04T05:02:16;6.20;;;2.60;;
70744;SDS011;59284;31.390;34.904;2023-02-04T05:04:42;7.63;;;3.03;;
70744;SDS011;59284;31.390;34.904;2023-02-04T05:07:07;5.90;;;2.83;;
70744;SDS011;59284;31.390;34.904;2023-02-04T05:09:33;3.87;;;2.27;;
70744;SDS011;59284;31.390;34.904;2023-02-04T05:11:59;6.70;;;2.28;;
70744;SDS011;59284;31.390;34.904;2023-02-04T05:14:24;8.30;;;2.97;;
70744;SDS011;59284;31.390;34.904;2023-02-04T05:16:50;5.25;;;3.20;;
70744;SDS011;59284;31.390;34.904;2023-02-04T05:19:16;3.57;;;2.30;;
70744;SDS011;59284;31.390;34.904;2023-02-04T05:21:41;5.40;;;2.63;;
70744;SDS011;59284;31.390;34.904;2023-02-04T05:24:07;4.40;;;2.40;;
70744;SDS011;59284;31.390;34.904;2023-02-04T05:26:32;7.97;;;3.27;;
70744;SDS011;59284;31.390;34.904;2023-02-04T05:28:58;4.97;;;2.47;;
70744;SDS011;59284;31.390;34.904;2023-02-04T05:31:24;5.45;;;2.40;;
70744;SDS011;59284;31.390;34.904;2023-02-04T05:33:50;3.40;;;1.97;;
70744;SDS011;59284;31.390;34.904;2023-02-04T05:36:16;5.63;;;2.28;;
70744;SDS011;59284;31.390;34.904;2023-02-04T05:38:42;5.18;;;2.53;;
70744;SDS011;59284;31.390;34.904;2023-02-04T05:41:08;4.27;;;2.40;;
70744;SDS011;59284;31.390;34.904;2023-02-04T05:43:33;5.18;;;2.70;;
70744;SDS011;59284;31.390;34.904;2023-02-04T05:45:59;4.60;;;2.70;;
70744;SDS011;59284;31.390;34.904;2023-02-04T05:48:25;4.97;;;2.30;;
70744;SDS011;59284;31.390;34.904;2023-02-04T05:50:51;4.77;;;2.60;;
70744;SDS011;59284;31.390;34.904;2023-02-04T05:53:17;6.27;;;2.67;;
70744;SDS011;59284;31.390;34.904;2023-02-04T05:55:43;7.63;;;2.92;;
70744;SDS011;59284;31.390;34.904;2023-02-04T05:58:08;4.13;;;2.43;;
70744;SDS011;59284;31.390;34.904;2023-02-04T06:00:34;4.00;;;1.90;;
70744;SDS011;59284;31.390;34.904;2023-02-04T06:03:00;4.97;;;2.35;;
70744;SDS011;59284;31.390;34.904;2023-02-04T06:05:25;6.40;;;2.40;;
70744;SDS011;59284;31.390;34.904;2023-02-04T06:07:51;7.23;;;3.73;;
70744;SDS011;59284;31.390;34.904;2023-02-04T06:10:17;7.60;;;2.50;;
70744;SDS011;59284;31.390;34.904;2023-02-04T06:12:42;5.57;;;2.87;;
70744;SDS011;59284;31.390;34.904;2023-02-04T06:15:08;5.65;;;3.15;;
70744;SDS011;59284;31.390;34.904;2023-02-04T06:17:34;8.52;;;3.10;;
70744;SDS011;59284;31.390;34.904;2023-02-04T06:20:00;4.20;;;2.13;;
70744;SDS011;59284;31.390;34.904;2023-02-04T06:22:26;6.10;;;2.73;;
70744;SDS011;59284;31.390;34.904;2023-02-04T06:24:51;5.85;;;3.35;;
70744;SDS011;59284;31.390;34.904;2023-02-04T06:27:17;7.87;;;3.17;;
70744;SDS011;59284;31.390;34.904;2023-02-04T06:29:48;7.55;;;3.75;;
70744;SDS011;59284;31.390;34.904;2023-02-04T06:32:15;4.78;;;2.70;;
70744;SDS011;59284;31.390;34.904;2023-02-04T06:34:41;6.05;;;3.53;;
70744;SDS011;59284;31.390;34.904;2023-02-04T06:37:07;7.40;;;3.73;;
70744;SDS011;59284;31.390;34.904;2023-02-04T06:39:33;5.43;;;3.83;;
70744;SDS011;59284;31.390;34.904;2023-02-04T06:41:58;7.47;;;3.87;;
70744;SDS011;59284;31.390;34.904;2023-02-04T06:44:24;11.27;;;3.47;;
70744;SDS011;59284;31.390;34.904;2023-02-04T06:46:49;8.13;;;3.73;;
70744;SDS011;59284;31.390;34.904;2023-02-04T06:49:15;7.18;;;4.25;;
70744;SDS011;59284;31.390;34.904;2023-02-04T06:51:41;7.33;;;3.27;;
70744;SDS011;59284;31.390;34.904;2023-02-04T06:54:06;7.72;;;3.40;;
70744;SDS011;59284;31.390;34.904;2023-02-04T06:56:33;6.03;;;3.13;;
70744;SDS011;59284;31.390;34.904;2023-02-04T06:58:59;7.18;;;4.03;;
70744;SDS011;59284;31.390;34.904;2023-02-04T07:01:25;7.13;;;3.70;;
70744;SDS011;59284;31.390;34.904;2023-02-04T07:03:50;8.80;;;4.17;;
70744;SDS011;59284;31.390;34.904;2023-02-04T07:06:16;4.30;;;2.27;;
70744;SDS011;59284;31.390;34.904;2023-02-04T07:08:41;10.85;;;4.85;;
70744;SDS011;59284;31.390;34.904;2023-02-04T07:11:07;8.70;;;4.53;;
70744;SDS011;59284;31.390;34.904;2023-02-04T07:13:33;11.20;;;5.20;;
70744;SDS011;59284;31.390;34.904;2023-02-04T07:15:58;9.80;;;4.60;;
70744;SDS011;59284;31.390;34.904;2023-02-04T07:18:24;9.98;;;4.63;;
70744;SDS011;59284;31.390;34.904;2023-02-04T07:20:49;8.57;;;3.93;;
70744;SDS011;59284;31.390;34.904;2023-02-04T07:23:15;12.93;;;5.93;;
70744;SDS011;59284;31.390;34.904;2023-02-04T07:25:41;13.63;;;5.60;;
70744;SDS011;59284;31.390;34.904;2023-02-04T07:28:08;11.43;;;5.53;;
70744;SDS011;59284;31.390;34.904;2023-02-04T07:30:33;12.50;;;5.97;;
70744;SDS011;59284;31.390;34.904;2023-02-04T07:32:59;11.00;;;6.13;;
70744;SDS011;59284;31.390;34.904;2023-02-04T07:35:25;9.48;;;6.20;;
70744;SDS011;59284;31.390;34.904;2023-02-04T07:37:50;11.07;;;6.27;;
70744;SDS011;59284;31.390;34.904;2023-02-04T07:40:16;14.93;;;5.68;;
70744;SDS011;59284;31.390;34.904;2023-02-04T07:42:42;10.77;;;5.95;;
70744;SDS011;59284;31.390;34.904;2023-02-04T07:45:09;7.75;;;3.97;;
70744;SDS011;59284;31.390;34.904;2023-02-04T07:47:35;9.07;;;4.60;;
70744;SDS011;59284;31.390;34.904;2023-02-04T07:50:00;12.77;;;6.60;;
70744;SDS011;59284;31.390;34.904;2023-02-04T07:52:26;7.03;;;4.57;;
70744;SDS011;59284;31.390;34.904;2023-02-04T07:54:52;13.48;;;6.50;;
70744;SDS011;59284;31.390;34.904;2023-02-04T07:57:18;17.07;;;5.30;;
70744;SDS011;59284;31.390;34.904;2023-02-04T07:59:44;9.43;;;5.72;;
70744;SDS011;59284;31.390;34.904;2023-02-04T08:02:10;12.25;;;6.07;;
70744;SDS011;59284;31.390;34.904;2023-02-04T08:04:36;8.80;;;5.23;;
70744;SDS011;59284;31.390;34.904;2023-02-04T08:07:05;8.00;;;5.05;;
70744;SDS011;59284;31.390;34.904;2023-02-04T08:09:30;15.73;;;5.80;;
70744;SDS011;59284;31.390;34.904;2023-02-04T08:11:56;9.98;;;4.72;;
70744;SDS011;59284;31.390;34.904;2023-02-04T08:14:24;13.80;;;4.28;;
70744;SDS011;59284;31.390;34.904;2023-02-04T08:16:50;15.20;;;5.50;;
70744;SDS011;59284;31.390;34.904;2023-02-04T08:19:15;12.57;;;5.43;;
70744;SDS011;59284;31.390;34.904;2023-02-04T08:21:45;9.20;;;4.90;;
70744;SDS011;59284;31.390;34.904;2023-02-04T08:24:14;9.07;;;4.68;;
70744;SDS011;59284;31.390;34.904;2023-02-04T08:26:41;12.68;;;4.95;;
70744;SDS011;59284;31.390;34.904;2023-02-04T08:29:07;10.73;;;4.28;;
70744;SDS011;59284;31.390;34.904;2023-02-04T08:31:33;8.00;;;4.20;;
70744;SDS011;59284;31.390;34.904;2023-02-04T08:34:01;5.70;;;3.53;;
70744;SDS011;59284;31.390;34.904;2023-02-04T08:36:32;5.93;;;3.10;;
70744;SDS011;59284;31.390;34.904;2023-02-04T08:38:58;9.15;;;3.70;;
70744;SDS011;59284;31.390;34.904;2023-02-04T08:41:23;7.43;;;3.80;;
70744;SDS011;59284;31.390;34.904;2023-02-04T08:43:49;8.27;;;3.67;;
70744;SDS011;59284;31.390;34.904;2023-02-04T08:46:18;8.30;;;3.50;;
70744;SDS011;59284;31.390;34.904;2023-02-04T08:48:43;7.97;;;3.30;;
70744;SDS011;59284;31.390;34.904;2023-02-04T08:51:09;7.13;;;2.93;;
70744;SDS011;59284;31.390;34.904;2023-02-04T08:53:35;7.55;;;3.78;;
70744;SDS011;59284;31.390;34.904;2023-02-04T08:56:01;9.50;;;4.20;;
70744;SDS011;59284;31.390;34.904;2023-02-04T08:58:27;6.17;;;3.53;;
70744;SDS011;59284;31.390;34.904;2023-02-04T09:00:53;7.40;;;4.10;;
70744;SDS011;59284;31.390;34.904;2023-02-04T09:03:20;13.52;;;4.68;;
70744;SDS011;59284;31.390;34.904;2023-02-04T09:05:45;9.67;;;5.53;;
70744;SDS011;59284;31.390;34.904;2023-02-04T09:08:12;8.68;;;4.68;;
70744;SDS011;59284;31.390;34.904;2023-02-04T09:10:39;13.93;;;5.53;;
70744;SDS011;59284;31.390;34.904;2023-02-04T09:13:05;14.90;;;6.47;;
70744;SDS011;59284;31.390;34.904;2023-02-04T09:15:33;15.43;;;7.50;;
70744;SDS011;59284;31.390;34.904;2023-02-04T09:17:59;12.00;;;6.35;;
70744;SDS011;59284;31.390;34.904;2023-02-04T09:20:38;12.48;;;7.07;;
70744;SDS011;59284;31.390;34.904;2023-02-04T09:23:04;19.20;;;7.17;;
70744;SDS011;59284;31.390;34.904;2023-02-04T09:25:33;12.23;;;7.25;;
70744;SDS011;59284;31.390;34.904;2023-02-04T09:27:59;13.88;;;7.40;;
70744;SDS011;59284;31.390;34.904;2023-02-04T09:30:24;17.60;;;7.93;;
70744;SDS011;59284;31.390;34.904;2023-02-04T09:32:50;13.90;;;7.35;;
70744;SDS011;59284;31.390;34.904;2023-02-04T09:35:16;13.20;;;6.93;;
70744;SDS011;59284;31.390;34.904;2023-02-04T09:37:41;13.68;;;6.85;;
70744;SDS011;59284;31.390;34.904;2023-02-04T09:40:08;17.93;;;8.13;;
70744;SDS011;59284;31.390;34.904;2023-02-04T09:42:39;12.73;;;6.22;;
70744;SDS011;59284;31.390;34.904;2023-02-04T09:45:05;13.13;;;6.50;;
70744;SDS011;59284;31.390;34.904;2023-02-04T09:47:36;10.80;;;4.85;;
70744;SDS011;59284;31.390;34.904;2023-02-04T09:50:02;21.35;;;6.22;;
70744;SDS011;59284;31.390;34.904;2023-02-04T09:52:29;12.98;;;6.53;;
70744;SDS011;59284;31.390;34.904;2023-02-04T09:54:55;12.60;;;5.70;;
70744;SDS011;59284;31.390;34.904;2023-02-04T09:57:20;12.52;;;7.00;;
70744;SDS011;59284;31.390;34.904;2023-02-04T09:59:46;10.10;;;5.20;;
70744;SDS011;59284;31.390;34.904;2023-02-04T10:02:23;11.93;;;5.38;;
70744;SDS011;59284;31.390;34.904;2023-02-04T10:04:51;8.73;;;4.82;;
70744;SDS011;59284;31.390;34.904;2023-02-04T10:07:21;11.57;;;4.82;;
70744;SDS011;59284;31.390;34.904;2023-02-04T10:09:51;11.70;;;5.10;;
70744;SDS011;59284;31.390;34.904;2023-02-04T10:12:17;9.15;;;4.20;;
70744;SDS011;59284;31.390;34.904;2023-02-04T10:14:43;6.32;;;3.60;;
70744;SDS011;59284;31.390;34.904;2023-02-04T10:17:10;10.80;;;4.40;;
70744;SDS011;59284;31.390;34.904;2023-02-04T10:19:37;11.82;;;4.75;;
70744;SDS011;59284;31.390;34.904;2023-02-04T10:22:06;5.83;;;3.03;;
70744;SDS011;59284;31.390;34.904;2023-02-04T10:24:40;8.13;;;4.38;;
70744;SDS011;59284;31.390;34.904;2023-02-04T10:27:10;7.40;;;4.40;;
70744;SDS011;59284;31.390;34.904;2023-02-04T10:29:39;7.65;;;4.30;;
70744;SDS011;59284;31.390;34.904;2023-02-04T10:32:23;6.45;;;4.10;;
70744;SDS011;59284;31.390;34.904;2023-02-04T10:34:55;9.70;;;4.53;;
70744;SDS011;59284;31.390;34.904;2023-02-04T10:37:22;10.35;;;4.03;;
70744;SDS011;59284;31.390;34.904;2023-02-04T10:39:48;4.93;;;2.50;;
70744;SDS011;59284;31.390;34.904;2023-02-04T10:44:53;11.10;;;5.35;;
70744;SDS011;59284;31.390;34.904;2023-02-04T10:47:26;7.75;;;5.03;;
70744;SDS011;59284;31.390;34.904;2023-02-04T10:49:55;9.57;;;5.07;;
70744;SDS011;59284;31.390;34.904;2023-02-04T10:52:40;10.25;;;6.22;;
70744;SDS011;59284;31.390;34.904;2023-02-04T10:55:13;8.48;;;3.80;;
70744;SDS011;59284;31.390;34.904;2023-02-04T10:57:43;10.02;;;6.03;;
70744;SDS011;59284;31.390;34.904;2023-02-04T11:02:48;15.40;;;6.87;;
70744;SDS011;59284;31.390;34.904;2023-02-04T11:05:34;11.73;;;5.93;;
70744;SDS011;59284;31.390;34.904;2023-02-04T11:08:01;12.77;;;6.00;;
70744;SDS011;59284;31.390;34.904;2023-02-04T11:10:31;10.43;;;4.75;;
70744;SDS011;59284;31.390;34.904;2023-02-04T11:12:59;8.10;;;4.85;;
70744;SDS011;59284;31.390;34.904;2023-02-04T11:15:42;8.57;;;4.27;;
70744;SDS011;59284;31.390;34.904;2023-02-04T11:20:46;6.53;;;3.35;;
70744;SDS011;59284;31.390;34.904;2023-02-04T11:26:52;5.85;;;1.73;;
70744;SDS011;59284;31.390;34.904;2023-02-04T11:37:41;3.13;;;1.57;;
70744;SDS011;59284;31.390;34.904;2023-02-04T11:39:41;3.08;;;1.88;;
70744;SDS011;59284;31.390;34.904;2023-02-04T11:42:18;5.03;;;1.92;;
70744;SDS011;59284;31.390;34.904;2023-02-04T11:44:53;4.03;;;1.40;;
70744;SDS011;59284;31.390;34.904;2023-02-04T11:47:23;2.25;;;1.08;;
70744;SDS011;59284;31.390;34.904;2023-02-04T11:49:54;3.25;;;1.13;;
70744;SDS011;59284;31.390;34.904;2023-02-04T11:52:23;2.60;;;1.20;;
70744;SDS011;59284;31.390;34.904;2023-02-04T11:55:09;6.77;;;2.17;;
70744;SDS011;59284;31.390;34.904;2023-02-04T11:57:39;4.75;;;2.58;;
70744;SDS011;59284;31.390;34.904;2023-02-04T12:00:13;3.30;;;1.60;;
70744;SDS011;59284;31.390;34.904;2023-02-04T12:02:45;5.13;;;1.60;;
70744;SDS011;59284;31.390;34.904;2023-02-04T12:05:16;3.07;;;1.33;;
70744;SDS011;59284;31.390;34.904;2023-02-04T12:07:44;3.05;;;0.90;;
70744;SDS011;59284;31.390;34.904;2023-02-04T12:12:44;7.60;;;2.10;;
70744;SDS011;59284;31.390;34.904;2023-02-04T12:15:15;6.35;;;2.80;;
70744;SDS011;59284;31.390;34.904;2023-02-04T12:20:40;12.30;;;3.17;;
70744;SDS011;59284;31.390;34.904;2023-02-04T12:23:06;7.70;;;3.13;;
70744;SDS011;59284;31.390;34.904;2023-02-04T12:25:32;7.35;;;3.45;;
70744;SDS011;59284;31.390;34.904;2023-02-04T12:27:58;9.57;;;3.97;;
70744;SDS011;59284;31.390;34.904;2023-02-04T12:30:24;9.63;;;3.60;;
70744;SDS011;59284;31.390;34.904;2023-02-04T12:32:51;7.82;;;3.05;;
70744;SDS011;59284;31.390;34.904;2023-02-04T12:35:17;7.77;;;3.93;;
70744;SDS011;59284;31.390;34.904;2023-02-04T12:37:42;11.10;;;3.47;;
70744;SDS011;59284;31.390;34.904;2023-02-04T12:40:19;8.80;;;4.32;;
70744;SDS011;59284;31.390;34.904;2023-02-04T12:42:45;9.32;;;4.47;;
70744;SDS011;59284;31.390;34.904;2023-02-04T12:45:12;4.73;;;1.97;;
70744;SDS011;59284;31.390;34.904;2023-02-04T12:47:39;4.25;;;1.63;;
70744;SDS011;59284;31.390;34.904;2023-02-04T12:50:05;5.45;;;1.80;;
70744;SDS011;59284;31.390;34.904;2023-02-04T12:52:33;5.00;;;1.58;;
70744;SDS011;59284;31.390;34.904;2023-02-04T12:54:59;3.70;;;1.90;;
70744;SDS011;59284;31.390;34.904;2023-02-04T12:57:25;4.40;;;1.42;;
70744;SDS011;59284;31.390;34.904;2023-02-04T12:59:51;2.47;;;1.27;;
70744;SDS011;59284;31.390;34.904;2023-02-04T13:02:17;4.47;;;1.83;;
70744;SDS011;59284;31.390;34.904;2023-02-04T13:04:42;8.23;;;1.88;;
70744;SDS011;59284;31.390;34.904;2023-02-04T13:07:08;4.30;;;2.10;;
70744;SDS011;59284;31.390;34.904;2023-02-04T13:09:34;4.85;;;1.55;;
70744;SDS011;59284;31.390;34.904;2023-02-04T13:12:01;2.60;;;1.33;;
70744;SDS011;59284;31.390;34.904;2023-02-04T13:14:27;3.40;;;1.47;;
70744;SDS011;59284;31.390;34.904;2023-02-04T13:16:53;4.25;;;1.10;;
70744;SDS011;59284;31.390;34.904;2023-02-04T13:19:19;6.40;;;1.40;;
70744;SDS011;59284;31.390;34.904;2023-02-04T13:21:47;2.60;;;1.17;;
70744;SDS011;59284;31.390;34.904;2023-02-04T13:24:13;5.55;;;2.17;;
70744;SDS011;59284;31.390;34.904;2023-02-04T13:26:39;4.28;;;1.80;;
70744;SDS011;59284;31.390;34.904;2023-02-04T13:29:05;8.50;;;1.67;;
70744;SDS011;59284;31.390;34.904;2023-02-04T13:31:30;6.60;;;1.75;;
70744;SDS011;59284;31.390;34.904;2023-02-04T13:33:56;3.33;;;1.00;;
70744;SDS011;59284;31.390;34.904;2023-02-04T13:36:22;2.38;;;1.23;;
70744;SDS011;59284;31.390;34.904;2023-02-04T13:38:47;3.83;;;1.30;;
70744;SDS011;59284;31.390;34.904;2023-02-04T13:41:14;2.20;;;1.08;;
70744;SDS011;59284;31.390;34.904;2023-02-04T13:43:40;3.70;;;1.40;;
70744;SDS011;59284;31.390;34.904;2023-02-04T13:46:06;2.73;;;1.20;;
70744;SDS011;59284;31.390;34.904;2023-02-04T13:48:31;9.25;;;1.58;;
70744;SDS011;59284;31.390;34.904;2023-02-04T13:50:57;5.83;;;0.97;;
70744;SDS011;59284;31.390;34.904;2023-02-04T13:53:23;4.28;;;1.25;;
70744;SDS011;59284;31.390;34.904;2023-02-04T13:55:50;2.20;;;1.03;;
70744;SDS011;59284;31.390;34.904;2023-02-04T13:58:16;4.35;;;0.70;;
70744;SDS011;59284;31.390;34.904;2023-02-04T14:00:42;4.10;;;0.87;;
70744;SDS011;59284;31.390;34.904;2023-02-04T14:03:07;3.90;;;1.23;;
70744;SDS011;59284;31.390;34.904;2023-02-04T14:05:34;3.70;;;0.70;;
70744;SDS011;59284;31.390;34.904;2023-02-04T14:08:00;2.30;;;1.20;;
70744;SDS011;59284;31.390;34.904;2023-02-04T14:10:26;2.78;;;1.00;;
70744;SDS011;59284;31.390;34.904;2023-02-04T14:12:53;3.60;;;1.20;;
70744;SDS011;59284;31.390;34.904;2023-02-04T14:15:19;2.50;;;0.80;;
70744;SDS011;59284;31.390;34.904;2023-02-04T14:17:44;3.53;;;1.23;;
70744;SDS011;59284;31.390;34.904;2023-02-04T14:20:10;4.07;;;1.20;;
70744;SDS011;59284;31.390;34.904;2023-02-04T14:22:36;3.80;;;1.50;;
70744;SDS011;59284;31.390;34.904;2023-02-04T14:25:02;3.20;;;1.17;;
70744;SDS011;59284;31.390;34.904;2023-02-04T14:27:28;3.95;;;1.30;;
70744;SDS011;59284;31.390;34.904;2023-02-04T14:29:54;2.63;;;1.10;;
70744;SDS011;59284;31.390;34.904;2023-02-04T14:32:19;4.33;;;1.67;;
70744;SDS011;59284;31.390;34.904;2023-02-04T14:34:45;2.60;;;1.27;;
70744;SDS011;59284;31.390;34.904;2023-02-04T14:37:11;3.57;;;1.40;;
70744;SDS011;59284;31.390;34.904;2023-02-04T14:39:37;3.08;;;1.30;;
70744;SDS011;59284;31.390;34.904;2023-02-04T14:42:02;2.97;;;1.27;;
70744;SDS011;59284;31.390;34.904;2023-02-04T14:44:31;3.38;;;0.93;;
70744;SDS011;59284;31.390;34.904;2023-02-04T14:46:56;4.90;;;1.00;;
70744;SDS011;59284;31.390;34.904;2023-02-04T14:49:23;4.13;;;1.10;;
70744;SDS011;59284;31.390;34.904;2023-02-04T14:51:49;2.97;;;0.98;;
70744;SDS011;59284;31.390;34.904;2023-02-04T14:54:15;5.53;;;0.93;;
70744;SDS011;59284;31.390;34.904;2023-02-04T14:56:45;2.38;;;0.88;;
70744;SDS011;59284;31.390;34.904;2023-02-04T14:59:14;4.60;;;1.02;;